Sunny Hill Estates, Illinois
Current Conditions -  °F | °C
As of 8:52 PM on Monday 26 Jan 2015 (Local Time) from KMLI Reporting Station
Haze Haze  
Wind Chill: 32°   Ceiling: 3100
Heat Index: 32°   Visibility: 6mi
Dew Point: 30°   Wind: 0mph
Humidity: 92%   Direction: NA
Pressure: 29.87"   Gusts: NA
Location:  41.3669°N, 90.3966°W
Report Text: KMLI 270252Z 00000KT 6SM BR OVC031 00/M01 A2987 RMK AO2 SLP124 T00001011 51013
Loading
Personal Weather Stations






























Interactive Weather Map New forecast layout! Learn more

10-Day Weather Forecast

Advertisements
Track Severe Weather on mobile